createdAt,value
2023-04-09T00:00:39.639Z,60.71
2023-04-09T00:01:35.228Z,60.71
2023-04-09T00:02:31.291Z,61.02
2023-04-09T00:03:26.915Z,60.81
2023-04-09T00:04:22.449Z,60.81
2023-04-09T00:05:17.933Z,60.81
2023-04-09T00:06:13.506Z,60.81
2023-04-09T00:07:09.562Z,60.84
2023-04-09T00:08:05.115Z,60.71
2023-04-09T00:09:01.174Z,60.94
2023-04-09T00:09:57.197Z,60.91
2023-04-09T00:10:53.206Z,60.61
2023-04-09T00:11:38.504Z,60.61
2023-04-09T00:12:33.951Z,60.84
2023-04-09T00:13:38.561Z,61.35
2023-04-09T00:14:25.642Z,61.35
2023-04-09T00:15:30.556Z,61.46
2023-04-09T00:16:17.242Z,60.74
2023-04-09T00:17:13.246Z,61.25
2023-04-09T00:18:08.816Z,61.25
2023-04-09T00:19:04.396Z,61.28
2023-04-09T00:19:59.952Z,61.56
2023-04-09T00:20:55.495Z,60.43
2023-04-09T00:21:51.516Z,61.35
2023-04-09T00:22:47.081Z,61.46
2023-04-09T00:23:42.654Z,60.84
2023-04-09T00:24:38.219Z,60.53
2023-04-09T00:25:34.257Z,61.66
2023-04-09T00:26:29.799Z,61.15
2023-04-09T00:27:25.398Z,61.38
2023-04-09T00:28:32.718Z,61.15
2023-04-09T00:29:28.272Z,61.25
2023-04-09T00:30:24.866Z,60.84
2023-04-09T00:31:21.036Z,61.56
2023-04-09T00:32:15.955Z,61.66
2023-04-09T00:33:11.525Z,61.25
2023-04-09T00:34:07.561Z,61.90
2023-04-09T00:35:03.120Z,61.80
2023-04-09T00:35:58.701Z,61.90
2023-04-09T00:36:54.262Z,61.90
2023-04-09T00:37:49.852Z,61.07
2023-04-09T00:38:45.902Z,61.59
2023-04-09T00:39:41.445Z,62.24
2023-04-09T00:40:37.002Z,61.49
2023-04-09T00:41:33.050Z,62.00
2023-04-09T00:42:28.615Z,61.80
2023-04-09T00:43:24.167Z,62.00
2023-04-09T00:44:19.742Z,61.93
2023-04-09T00:45:27.087Z,61.90
2023-04-09T00:46:22.662Z,61.90
2023-04-09T00:47:18.206Z,61.80
2023-04-09T00:48:13.764Z,62.03
2023-04-09T00:49:09.330Z,61.82
2023-04-09T00:50:05.334Z,61.61
2023-04-09T00:51:00.888Z,61.52
2023-04-09T00:51:56.451Z,61.93
2023-04-09T00:52:52.057Z,61.61
2023-04-09T00:53:47.618Z,62.85
2023-04-09T00:54:43.164Z,62.24
2023-04-09T00:55:39.203Z,61.41
2023-04-09T00:56:35.783Z,61.61
2023-04-09T00:57:31.368Z,61.52
2023-04-09T00:58:26.915Z,62.24
2023-04-09T00:59:22.462Z,61.61
2023-04-09T01:00:18.034Z,62.03
2023-04-09T01:01:14.066Z,62.03
2023-04-09T01:02:09.693Z,61.31
2023-04-09T01:03:05.364Z,62.03
2023-04-09T01:04:01.285Z,61.82
2023-04-09T01:04:57.328Z,62.24
2023-04-09T01:05:52.876Z,61.82
2023-04-09T01:06:48.903Z,62.06
2023-04-09T01:07:44.473Z,62.78
2023-04-09T01:08:40.049Z,62.26
2023-04-09T01:09:35.598Z,63.19
2023-04-09T01:10:31.635Z,62.78
2023-04-09T01:11:27.229Z,62.88
2023-04-09T01:12:22.780Z,63.09
2023-04-09T01:13:18.817Z,63.19
2023-04-09T01:14:14.945Z,62.88
2023-04-09T01:15:10.477Z,62.26
2023-04-09T01:16:06.549Z,62.99
2023-04-09T01:17:02.526Z,62.99
2023-04-09T01:17:58.574Z,63.40
2023-04-09T01:18:54.234Z,62.99
2023-04-09T01:19:50.142Z,63.60
2023-04-09T01:20:46.157Z,62.88
2023-04-09T01:21:42.215Z,62.81
2023-04-09T01:22:37.744Z,63.32
2023-04-09T01:23:33.792Z,63.32
2023-04-09T01:24:29.343Z,63.43
2023-04-09T01:25:24.881Z,63.01
2023-04-09T01:26:20.479Z,63.12
2023-04-09T01:27:16.078Z,63.22
2023-04-09T01:28:12.106Z,63.74
2023-04-09T01:29:07.700Z,63.32
2023-04-09T01:30:03.232Z,63.22
2023-04-09T01:30:58.786Z,64.04
2023-04-09T01:31:54.309Z,63.74
2023-04-09T01:32:49.877Z,62.81
2023-04-09T01:33:45.414Z,63.01
2023-04-09T01:34:40.973Z,63.32
2023-04-09T01:35:36.532Z,63.46
2023-04-09T01:36:32.570Z,63.64
2023-04-09T01:37:28.121Z,63.56
2023-04-09T01:38:23.665Z,63.22
2023-04-09T01:39:19.206Z,63.46
2023-04-09T01:40:14.792Z,63.46
2023-04-09T01:41:10.778Z,63.35
2023-04-09T01:42:06.798Z,63.77
2023-04-09T01:43:02.366Z,63.35
2023-04-09T01:43:58.411Z,63.56
2023-04-09T01:44:53.990Z,63.35
2023-04-09T01:45:49.541Z,63.67
2023-04-09T01:46:45.118Z,63.46
2023-04-09T01:47:40.681Z,63.15
2023-04-09T01:48:36.698Z,63.56
2023-04-09T01:49:32.288Z,63.46
2023-04-09T01:50:27.866Z,64.07
2023-04-09T01:51:23.482Z,63.25
2023-04-09T01:52:18.970Z,63.35
2023-04-09T01:53:14.516Z,63.35
2023-04-09T01:54:11.096Z,63.87
2023-04-09T01:55:07.139Z,63.87
2023-04-09T01:56:03.217Z,63.87
2023-04-09T01:56:59.191Z,63.77
2023-04-09T01:57:54.742Z,63.67
2023-04-09T01:58:50.643Z,63.49
2023-04-09T01:59:46.356Z,63.87
2023-04-09T02:00:42.405Z,63.67
2023-04-09T02:01:38.010Z,63.25
2023-04-09T02:02:34.198Z,63.56
2023-04-09T02:03:30.133Z,63.56
2023-04-09T02:04:25.616Z,64.31
2023-04-09T02:05:21.641Z,64.11
2023-04-09T02:06:17.193Z,63.49
2023-04-09T02:07:12.752Z,63.67
2023-04-09T02:08:08.786Z,63.69
2023-04-09T02:09:04.334Z,63.79
2023-04-09T02:10:00.378Z,63.59
2023-04-09T02:10:56.419Z,64.21
2023-04-09T02:11:51.949Z,64.11
2023-04-09T02:12:47.501Z,64.00
2023-04-09T02:13:43.056Z,64.00
2023-04-09T02:14:38.634Z,64.42
2023-04-09T02:15:34.225Z,63.90
2023-04-09T02:16:29.767Z,63.93
2023-04-09T02:17:25.322Z,64.00
2023-04-09T02:18:20.860Z,63.59
2023-04-09T02:19:16.419Z,63.59
2023-04-09T02:20:12.979Z,63.69
2023-04-09T02:21:08.514Z,64.31
2023-04-09T02:22:04.556Z,63.69
2023-04-09T02:23:00.130Z,64.11
2023-04-09T02:23:55.667Z,63.69
2023-04-09T02:24:51.208Z,64.52
2023-04-09T02:25:46.803Z,64.45
2023-04-09T02:26:42.292Z,64.86
2023-04-09T02:27:38.349Z,64.52
2023-04-09T02:28:34.344Z,64.65
2023-04-09T02:29:29.920Z,64.86
2023-04-09T02:30:25.479Z,65.27
2023-04-09T02:31:21.568Z,64.96
2023-04-09T02:32:17.635Z,65.17
2023-04-09T02:33:13.630Z,64.34
2023-04-09T02:34:09.194Z,64.55
2023-04-09T02:35:04.774Z,64.65
2023-04-09T02:36:00.365Z,64.03
2023-04-09T02:36:55.916Z,64.76
2023-04-09T02:37:51.465Z,64.45
2023-04-09T02:38:47.488Z,64.86
2023-04-09T02:39:43.038Z,64.86
2023-04-09T02:40:38.587Z,64.34
2023-04-09T02:41:34.136Z,64.34
2023-04-09T02:42:29.682Z,64.76
2023-04-09T02:43:25.225Z,64.65
2023-04-09T02:44:20.789Z,64.24
2023-04-09T02:45:16.330Z,64.76
2023-04-09T02:46:11.933Z,65.06
2023-04-09T02:47:07.445Z,64.27
2023-04-09T02:48:03.025Z,64.27
2023-04-09T02:48:59.033Z,63.96
2023-04-09T02:49:54.579Z,64.14
2023-04-09T02:50:50.210Z,64.58
2023-04-09T02:51:46.691Z,64.06
2023-04-09T02:52:42.236Z,65.37
2023-04-09T02:53:37.831Z,65.41
2023-04-09T02:54:33.362Z,65.30
2023-04-09T02:55:29.919Z,64.14
2023-04-09T02:56:25.436Z,64.89
2023-04-09T02:57:21.473Z,64.89
2023-04-09T02:58:17.056Z,64.89
2023-04-09T02:59:12.593Z,65.51
2023-04-09T03:00:08.145Z,64.78
2023-04-09T03:01:04.172Z,65.41
2023-04-09T03:02:00.303Z,64.58
2023-04-09T03:02:55.996Z,64.99
2023-04-09T03:03:51.493Z,64.89
2023-04-09T03:04:47.388Z,64.89
2023-04-09T03:05:42.958Z,64.71
2023-04-09T03:06:39.519Z,64.48
2023-04-09T03:07:35.075Z,64.78
2023-04-09T03:08:31.689Z,65.09
2023-04-09T03:09:27.241Z,65.41
2023-04-09T03:10:22.817Z,65.41
2023-04-09T03:11:18.367Z,65.41
2023-04-09T03:12:13.929Z,65.41
2023-04-09T03:13:09.966Z,65.54
2023-04-09T03:14:05.518Z,65.64
2023-04-09T03:15:01.568Z,65.44
2023-04-09T03:15:57.156Z,64.92
2023-04-09T03:16:52.703Z,65.51
2023-04-09T03:17:48.762Z,64.78
2023-04-09T03:18:44.778Z,65.64
2023-04-09T03:19:40.355Z,65.30
2023-04-09T03:20:36.369Z,65.54
2023-04-09T03:21:31.926Z,65.51
2023-04-09T03:22:27.940Z,65.64
2023-04-09T03:23:23.488Z,65.95
2023-04-09T03:24:19.101Z,65.54
2023-04-09T03:25:14.613Z,65.75
2023-04-09T03:26:10.176Z,65.54
2023-04-09T03:27:06.213Z,65.54
2023-04-09T03:28:01.772Z,65.54
2023-04-09T03:28:57.325Z,65.95
2023-04-09T03:29:52.887Z,65.44
2023-04-09T03:30:48.901Z,65.54
2023-04-09T03:31:44.486Z,65.75
2023-04-09T03:32:40.510Z,65.44
2023-04-09T03:33:36.037Z,65.44
2023-04-09T03:34:31.647Z,65.33
2023-04-09T03:35:27.723Z,65.44
2023-04-09T03:36:23.225Z,65.64
2023-04-09T03:37:18.798Z,65.54
2023-04-09T03:38:14.349Z,64.95
2023-04-09T03:39:09.913Z,65.47
2023-04-09T03:40:05.487Z,65.47
2023-04-09T03:41:01.513Z,64.74
2023-04-09T03:41:57.153Z,65.02
2023-04-09T03:42:53.187Z,64.95
2023-04-09T03:43:49.214Z,65.75
2023-04-09T03:44:44.764Z,65.26
2023-04-09T03:45:40.317Z,65.44
2023-04-09T03:46:35.903Z,65.33
2023-04-09T03:47:31.432Z,65.05
2023-04-09T03:48:26.975Z,65.23
2023-04-09T03:49:23.002Z,65.44
2023-04-09T03:50:20.079Z,65.36
2023-04-09T03:51:15.650Z,65.36
2023-04-09T03:52:11.155Z,65.16
2023-04-09T03:53:06.709Z,65.36
2023-04-09T03:54:02.343Z,65.36
2023-04-09T03:54:57.834Z,65.57
2023-04-09T03:55:53.392Z,65.67
2023-04-09T03:56:49.429Z,65.67
2023-04-09T03:57:45.454Z,65.05
2023-04-09T03:58:40.992Z,65.12
2023-04-09T03:59:36.553Z,65.47
2023-04-09T04:00:32.111Z,64.74
2023-04-09T04:01:27.651Z,65.88
2023-04-09T04:02:23.405Z,65.78
2023-04-09T04:03:19.848Z,65.47
2023-04-09T04:04:15.943Z,66.09
2023-04-09T04:05:11.876Z,65.78
2023-04-09T04:06:18.699Z,66.09
2023-04-09T04:07:14.269Z,65.99
2023-04-09T04:08:09.796Z,66.19
2023-04-09T04:09:05.364Z,66.32
2023-04-09T04:10:01.505Z,66.22
2023-04-09T04:10:56.945Z,66.53
2023-04-09T04:11:52.481Z,66.60
2023-04-09T04:12:48.574Z,65.70
2023-04-09T04:13:44.547Z,66.09
2023-04-09T04:14:40.091Z,65.29
2023-04-09T04:15:36.139Z,65.99
2023-04-09T04:16:32.209Z,65.78
2023-04-09T04:17:28.227Z,66.63
2023-04-09T04:18:23.757Z,66.53
2023-04-09T04:19:19.341Z,66.12
2023-04-09T04:20:14.878Z,66.84
2023-04-09T04:21:10.441Z,66.12
2023-04-09T04:22:06.439Z,66.12
2023-04-09T04:23:02.492Z,66.63
2023-04-09T04:23:58.031Z,66.74
2023-04-09T04:24:53.797Z,66.53
2023-04-09T04:25:49.355Z,66.63
2023-04-09T04:26:44.929Z,66.53
2023-04-09T04:27:40.504Z,66.53
2023-04-09T04:28:36.038Z,66.22
2023-04-09T04:29:32.107Z,66.22
2023-04-09T04:30:50.178Z,65.91
2023-04-09T04:31:46.265Z,66.12
2023-04-09T04:32:41.791Z,67.05
2023-04-09T04:33:37.289Z,66.22
2023-04-09T04:34:32.844Z,66.94
2023-04-09T04:35:28.440Z,66.22
2023-04-09T04:36:23.966Z,66.22
2023-04-09T04:37:19.518Z,66.22
2023-04-09T04:38:15.590Z,66.02
2023-04-09T04:39:12.134Z,66.22
2023-04-09T04:40:07.748Z,66.42
2023-04-09T04:41:03.263Z,66.02
2023-04-09T04:41:59.296Z,65.81
2023-04-09T04:42:55.340Z,66.53
2023-04-09T04:43:50.931Z,66.22
2023-04-09T04:44:46.485Z,66.12
2023-04-09T04:45:42.569Z,66.22
2023-04-09T04:46:38.566Z,66.22
2023-04-09T04:47:34.150Z,66.84
2023-04-09T04:48:29.694Z,66.84
2023-04-09T04:49:25.242Z,66.53
2023-04-09T04:50:20.782Z,67.15
2023-04-09T04:51:16.385Z,67.36
2023-04-09T04:52:11.955Z,66.84
2023-04-09T04:53:07.487Z,66.42
2023-04-09T04:54:03.064Z,67.25
2023-04-09T04:54:58.591Z,67.57
2023-04-09T04:55:55.646Z,67.05
2023-04-09T04:56:51.444Z,66.22
2023-04-09T04:57:46.983Z,66.63
2023-04-09T04:58:43.014Z,66.63
2023-04-09T04:59:38.560Z,67.05
2023-04-09T05:00:34.100Z,66.63
2023-04-09T05:01:30.151Z,66.74
2023-04-09T05:02:26.295Z,67.77
2023-04-09T05:03:21.836Z,67.46
2023-04-09T05:04:17.272Z,67.36
2023-04-09T05:05:12.827Z,67.05
2023-04-09T05:06:08.462Z,67.22
2023-04-09T05:07:03.997Z,67.98
2023-04-09T05:07:59.546Z,67.77
2023-04-09T05:08:55.192Z,67.98
2023-04-09T05:09:52.153Z,67.57
2023-04-09T05:10:49.196Z,68.05
2023-04-09T05:11:34.348Z,67.77
2023-04-09T05:12:29.909Z,67.98
2023-04-09T05:13:25.525Z,67.98
2023-04-09T05:14:21.542Z,68.80
2023-04-09T05:15:17.200Z,67.57
2023-04-09T05:16:12.789Z,67.98
2023-04-09T05:17:09.345Z,67.77
2023-04-09T05:18:04.875Z,68.49
2023-04-09T05:19:00.514Z,68.60
2023-04-09T05:19:56.008Z,67.98
2023-04-09T05:20:52.566Z,68.19
2023-04-09T05:21:48.628Z,67.74
2023-04-09T05:22:44.677Z,67.77
2023-04-09T05:23:40.726Z,67.95
2023-04-09T05:24:36.313Z,68.36
2023-04-09T05:25:31.864Z,68.46
2023-04-09T05:26:27.384Z,67.95
2023-04-09T05:27:22.942Z,68.29
2023-04-09T05:28:18.490Z,67.85
2023-04-09T05:29:14.060Z,67.95
2023-04-09T05:30:09.620Z,67.95
2023-04-09T05:30:54.144Z,68.36
2023-04-09T05:31:51.171Z,68.46
2023-04-09T05:32:47.242Z,68.46
2023-04-09T05:33:43.218Z,68.43
2023-04-09T05:34:40.244Z,68.88
2023-04-09T05:35:36.357Z,68.88
2023-04-09T05:36:32.383Z,68.67
2023-04-09T05:37:27.940Z,68.46
2023-04-09T05:38:23.493Z,69.60
2023-04-09T05:39:19.060Z,68.88
2023-04-09T05:40:14.631Z,68.98
2023-04-09T05:41:10.223Z,69.92
2023-04-09T05:42:05.788Z,69.40
2023-04-09T05:43:01.813Z,68.57
2023-04-09T05:44:00.467Z,69.78
2023-04-09T05:44:54.519Z,69.60
2023-04-09T05:45:50.575Z,69.71
2023-04-09T05:46:46.105Z,68.98
2023-04-09T05:47:42.208Z,69.37
2023-04-09T05:48:38.202Z,69.57
2023-04-09T05:49:34.758Z,69.67
2023-04-09T05:50:30.953Z,70.74
2023-04-09T05:51:26.468Z,70.19
2023-04-09T05:52:22.484Z,69.98
2023-04-09T05:53:18.890Z,69.16
2023-04-09T05:54:14.439Z,70.09
2023-04-09T05:55:10.099Z,69.26
2023-04-09T05:56:06.670Z,69.37
2023-04-09T05:57:02.840Z,69.88
2023-04-09T05:57:58.397Z,70.06
2023-04-09T05:58:54.420Z,69.88
2023-04-09T05:59:49.982Z,69.23
2023-04-09T06:00:45.995Z,69.95
2023-04-09T06:01:41.647Z,69.85
2023-04-09T06:02:37.856Z,68.92
2023-04-09T06:03:33.843Z,69.33
2023-04-09T06:04:29.779Z,69.74
2023-04-09T06:05:25.297Z,70.88
2023-04-09T06:06:21.343Z,69.64
2023-04-09T06:07:17.906Z,69.95
2023-04-09T06:08:13.467Z,69.61
2023-04-09T06:09:20.296Z,70.06
2023-04-09T06:10:15.901Z,69.43
2023-04-09T06:11:11.922Z,68.82
2023-04-09T06:12:07.982Z,68.88
2023-04-09T06:13:03.522Z,68.48
2023-04-09T06:13:59.084Z,69.51
2023-04-09T06:14:54.680Z,68.58
2023-04-09T06:15:50.253Z,69.20
2023-04-09T06:16:45.787Z,68.75
2023-04-09T06:17:41.424Z,68.85
2023-04-09T06:18:36.919Z,69.58
2023-04-09T06:19:32.501Z,69.17
2023-04-09T06:20:28.586Z,68.82
2023-04-09T06:21:24.117Z,68.54
2023-04-09T06:22:19.645Z,68.41
2023-04-09T06:23:15.188Z,68.51
2023-04-09T06:24:10.740Z,68.72
2023-04-09T06:25:06.333Z,68.62
2023-04-09T06:26:01.872Z,68.93
2023-04-09T06:26:57.405Z,68.48
2023-04-09T06:27:52.970Z,68.79
2023-04-09T06:28:48.578Z,68.69
2023-04-09T06:29:46.540Z,68.79
2023-04-09T06:30:42.585Z,68.07
2023-04-09T06:31:38.127Z,68.38
2023-04-09T06:32:46.822Z,68.35
2023-04-09T06:33:29.741Z,68.04
2023-04-09T06:34:25.762Z,68.14
2023-04-09T06:35:21.788Z,67.49
2023-04-09T06:36:17.342Z,67.70
2023-04-09T06:37:12.909Z,67.70
2023-04-09T06:38:08.929Z,67.36
2023-04-09T06:39:04.470Z,67.66
2023-04-09T06:40:01.421Z,67.46
2023-04-09T06:40:56.081Z,67.36
2023-04-09T06:41:52.651Z,66.84
2023-04-09T06:42:48.178Z,67.74
2023-04-09T06:43:43.861Z,67.25
2023-04-09T06:44:39.389Z,67.63
2023-04-09T06:45:35.426Z,66.71
2023-04-09T06:46:31.000Z,67.02
2023-04-09T06:47:27.047Z,67.43
2023-04-09T06:48:22.593Z,66.47
2023-04-09T06:49:18.633Z,65.75
2023-04-09T06:50:15.692Z,66.67
2023-04-09T06:51:11.318Z,66.78
2023-04-09T06:52:06.864Z,67.09
2023-04-09T06:53:02.901Z,66.27
2023-04-09T06:53:59.988Z,66.99
2023-04-09T06:54:55.981Z,66.85
2023-04-09T06:55:52.015Z,67.06
2023-04-09T06:56:48.050Z,66.93
2023-04-09T06:57:43.721Z,66.00
2023-04-09T06:58:39.650Z,67.44
2023-04-09T06:59:35.235Z,66.61
2023-04-09T07:00:30.768Z,65.80
2023-04-09T07:01:26.356Z,65.86
2023-04-09T07:02:21.955Z,66.17
2023-04-09T07:03:17.566Z,66.14
2023-04-09T07:04:14.254Z,65.32
2023-04-09T07:05:09.648Z,65.53
2023-04-09T07:06:05.815Z,65.53
2023-04-09T07:07:01.365Z,65.09
2023-04-09T07:07:56.947Z,64.91
2023-04-09T07:08:52.789Z,64.98
2023-04-09T07:09:48.559Z,64.98
2023-04-09T07:10:44.602Z,65.09
2023-04-09T07:11:51.445Z,65.09
2023-04-09T07:12:47.106Z,65.09
2023-04-09T07:13:43.168Z,64.88
2023-04-09T07:14:38.863Z,64.75
2023-04-09T07:15:34.399Z,64.64
2023-04-09T07:16:30.045Z,65.03
2023-04-09T07:17:25.540Z,64.92
2023-04-09T07:18:22.086Z,64.44
2023-04-09T07:19:18.114Z,64.20
2023-04-09T07:20:13.708Z,64.41
2023-04-09T07:21:09.272Z,64.61
2023-04-09T07:22:05.311Z,64.41
2023-04-09T07:23:01.362Z,64.38
2023-04-09T07:23:56.886Z,64.20
2023-04-09T07:24:52.458Z,63.25
2023-04-09T07:25:48.010Z,63.66
2023-04-09T07:26:43.578Z,63.25
2023-04-09T07:27:39.124Z,63.25
2023-04-09T07:28:34.679Z,63.35
2023-04-09T07:29:30.730Z,63.97
2023-04-09T07:30:26.790Z,63.53
2023-04-09T07:31:22.378Z,63.73
2023-04-09T07:32:18.961Z,63.43
2023-04-09T07:33:14.510Z,63.22
2023-04-09T07:34:10.605Z,63.29
2023-04-09T07:35:06.121Z,63.09
2023-04-09T07:36:01.714Z,62.88
2023-04-09T07:36:58.244Z,62.68
2023-04-09T07:37:53.813Z,63.09
2023-04-09T07:38:49.416Z,62.99
2023-04-09T07:39:45.472Z,62.78
2023-04-09T07:40:41.027Z,62.35
2023-04-09T07:41:36.575Z,62.55
2023-04-09T07:42:32.133Z,62.55
2023-04-09T07:43:27.704Z,62.45
2023-04-09T07:44:23.720Z,62.24
2023-04-09T07:45:19.280Z,63.06
2023-04-09T07:46:15.332Z,61.19
2023-04-09T07:47:10.872Z,62.01
2023-04-09T07:48:06.924Z,62.42
2023-04-09T07:49:02.981Z,62.24
2023-04-09T07:49:59.019Z,62.11
2023-04-09T07:50:54.590Z,61.91
2023-04-09T07:51:50.634Z,61.80
2023-04-09T07:52:46.212Z,62.29
2023-04-09T07:53:43.250Z,61.67
2023-04-09T07:54:50.081Z,61.24
2023-04-09T07:55:45.646Z,61.47
2023-04-09T07:56:41.689Z,61.44
2023-04-09T07:57:37.243Z,60.83
2023-04-09T07:58:33.304Z,61.24
2023-04-09T07:59:28.867Z,60.83
2023-04-09T08:00:25.023Z,61.34
2023-04-09T08:01:20.966Z,60.72
2023-04-09T08:02:16.601Z,61.03
2023-04-09T08:03:12.331Z,61.10
2023-04-09T08:04:08.324Z,60.80
2023-04-09T08:05:03.824Z,60.36
2023-04-09T08:05:59.344Z,60.05
2023-04-09T08:06:55.358Z,60.36
2023-04-09T08:07:50.925Z,60.46
2023-04-09T08:08:46.984Z,60.05
2023-04-09T08:09:42.540Z,60.03
2023-04-09T08:10:38.105Z,60.03
2023-04-09T08:11:33.655Z,60.13
2023-04-09T08:12:29.210Z,59.41
2023-04-09T08:13:25.262Z,60.13
2023-04-09T08:14:20.808Z,60.03
2023-04-09T08:15:16.844Z,59.49
2023-04-09T08:16:12.981Z,59.59
2023-04-09T08:17:08.531Z,58.57
2023-04-09T08:18:04.101Z,59.46
2023-04-09T08:18:59.592Z,58.54
2023-04-09T08:19:55.637Z,59.05
2023-04-09T08:20:51.669Z,58.62
2023-04-09T08:21:47.709Z,58.41
2023-04-09T08:22:43.288Z,58.49
2023-04-09T08:23:39.311Z,57.95
2023-04-09T08:24:35.875Z,57.65
2023-04-09T08:25:31.434Z,56.83
2023-04-09T08:26:27.000Z,56.81
2023-04-09T08:27:23.594Z,56.57
2023-04-09T08:28:19.633Z,56.07
2023-04-09T08:29:15.204Z,55.73
2023-04-09T08:30:10.760Z,55.63
2023-04-09T08:31:06.809Z,54.69
2023-04-09T08:32:02.450Z,54.59
2023-04-09T08:32:58.027Z,55.18
2023-04-09T08:33:53.524Z,55.38
2023-04-09T08:34:49.115Z,55.76
2023-04-09T08:35:45.146Z,54.94
2023-04-09T08:36:41.248Z,54.72
2023-04-09T08:37:37.226Z,53.98
2023-04-09T08:38:33.281Z,54.28
2023-04-09T08:39:29.323Z,53.47
2023-04-09T08:40:25.371Z,53.85
2023-04-09T08:41:21.403Z,53.83
2023-04-09T08:42:17.451Z,53.40
2023-04-09T08:43:13.498Z,52.69
2023-04-09T08:44:09.042Z,53.47
2023-04-09T08:45:04.590Z,53.34
2023-04-09T08:46:00.683Z,51.93
2023-04-09T08:46:58.312Z,51.90
2023-04-09T08:47:52.416Z,52.79
2023-04-09T08:48:48.509Z,51.28
2023-04-09T08:49:44.512Z,50.95
2023-04-09T08:50:40.081Z,50.74
2023-04-09T08:51:36.101Z,50.32
2023-04-09T08:52:32.143Z,49.10
2023-04-09T08:53:28.161Z,50.49
2023-04-09T08:54:23.753Z,50.16
2023-04-09T08:55:19.313Z,49.76
2023-04-09T08:56:14.907Z,49.04
2023-04-09T08:57:10.934Z,48.33
2023-04-09T08:58:06.975Z,47.22
2023-04-09T08:59:02.541Z,46.39
2023-04-09T08:59:58.628Z,47.09
2023-04-09T09:00:54.679Z,47.67
2023-04-09T09:01:50.725Z,47.35
2023-04-09T09:02:46.764Z,48.24
2023-04-09T09:03:42.355Z,46.53
2023-04-09T09:04:38.355Z,45.52
2023-04-09T09:05:33.894Z,45.57
2023-04-09T09:06:29.953Z,44.24
2023-04-09T09:07:25.490Z,44.45
2023-04-09T09:08:21.517Z,44.75
2023-04-09T09:09:17.542Z,43.92
2023-04-09T09:10:13.129Z,44.73
2023-04-09T09:11:08.846Z,43.10
2023-04-09T09:12:04.368Z,42.97
2023-04-09T09:13:00.408Z,44.08
2023-04-09T09:13:55.963Z,44.06
2023-04-09T09:14:51.547Z,42.94
2023-04-09T09:15:47.591Z,42.02
2023-04-09T09:16:43.391Z,42.32
2023-04-09T09:17:39.282Z,41.97
2023-04-09T09:18:35.804Z,40.97
2023-04-09T09:19:31.847Z,41.46
2023-04-09T09:20:28.039Z,40.65
2023-04-09T09:21:23.957Z,40.13
2023-04-09T09:22:19.501Z,39.73
2023-04-09T09:23:15.543Z,40.31
2023-04-09T09:24:11.574Z,40.19
2023-04-09T09:25:07.640Z,39.59
2023-04-09T09:26:03.692Z,39.37
2023-04-09T09:26:59.280Z,39.18
2023-04-09T09:27:54.883Z,38.16
2023-04-09T09:28:50.563Z,38.54
2023-04-09T09:29:45.968Z,38.54
2023-04-09T09:30:41.571Z,36.93
2023-04-09T09:31:37.607Z,37.02
2023-04-09T09:32:33.230Z,38.10
2023-04-09T09:33:29.222Z,36.61
2023-04-09T09:34:24.813Z,37.08
2023-04-09T09:35:20.344Z,36.97
2023-04-09T09:36:15.996Z,37.17
2023-04-09T09:37:11.525Z,36.83
2023-04-09T09:38:07.128Z,36.44
2023-04-09T09:39:03.161Z,36.52
2023-04-09T09:39:59.194Z,36.02
2023-04-09T09:40:54.802Z,35.63
2023-04-09T09:41:50.838Z,34.81
2023-04-09T09:42:46.406Z,35.39
2023-04-09T09:43:42.571Z,35.67
2023-04-09T09:44:38.177Z,34.58
2023-04-09T09:45:34.219Z,33.88
2023-04-09T09:46:30.333Z,33.97
2023-04-09T09:47:25.875Z,33.27
2023-04-09T09:48:21.392Z,33.76
2023-04-09T09:49:16.978Z,33.06
2023-04-09T09:50:12.554Z,33.34
2023-04-09T09:51:08.625Z,33.04
2023-04-09T09:52:04.186Z,33.24
2023-04-09T09:52:59.733Z,33.22
2023-04-09T09:53:55.787Z,32.23
2023-04-09T09:54:51.805Z,33.03
2023-04-09T09:55:47.356Z,31.23
2023-04-09T09:56:42.993Z,31.04
2023-04-09T09:57:39.003Z,33.31
2023-04-09T09:58:34.634Z,32.20
2023-04-09T09:59:30.205Z,33.00
2023-04-09T10:00:26.255Z,31.57
2023-04-09T10:01:22.364Z,30.80
2023-04-09T10:02:18.520Z,31.48
2023-04-09T10:03:14.523Z,32.25
2023-04-09T10:04:10.089Z,32.43
2023-04-09T10:05:06.123Z,31.15
2023-04-09T10:06:01.688Z,31.43
2023-04-09T10:06:57.262Z,31.33
2023-04-09T10:07:53.342Z,30.43
2023-04-09T10:08:49.519Z,29.14
2023-04-09T10:09:45.427Z,30.32
2023-04-09T10:10:41.481Z,30.51
2023-04-09T10:11:37.530Z,29.52
2023-04-09T10:12:33.567Z,29.32
2023-04-09T10:13:29.685Z,29.13
2023-04-09T10:14:25.198Z,30.20
2023-04-09T10:15:21.255Z,29.11
2023-04-09T10:16:16.865Z,29.11
2023-04-09T10:17:12.373Z,29.39
2023-04-09T10:18:08.409Z,29.00
2023-04-09T10:19:04.471Z,29.28
2023-04-09T10:20:00.506Z,29.27
2023-04-09T10:20:56.091Z,28.19
2023-04-09T10:21:52.122Z,28.88
2023-04-09T10:22:48.164Z,28.08
2023-04-09T10:23:43.747Z,28.86
2023-04-09T10:24:39.275Z,28.26
2023-04-09T10:25:35.333Z,26.98
2023-04-09T10:26:31.432Z,27.37
2023-04-09T10:27:27.425Z,27.26
2023-04-09T10:28:23.486Z,26.87
2023-04-09T10:29:19.530Z,27.06
2023-04-09T10:30:15.176Z,28.13
2023-04-09T10:31:11.142Z,27.74
2023-04-09T10:32:07.280Z,27.54
2023-04-09T10:33:03.288Z,28.13
2023-04-09T10:33:59.273Z,28.12
2023-04-09T10:34:54.860Z,26.64
2023-04-09T10:35:50.426Z,27.43
2023-04-09T10:36:46.468Z,27.05
2023-04-09T10:37:42.501Z,25.67
2023-04-09T10:38:38.079Z,27.54
2023-04-09T10:39:33.664Z,26.84
2023-04-09T10:40:29.235Z,26.53
2023-04-09T10:41:25.304Z,26.43
2023-04-09T10:42:20.870Z,27.11
2023-04-09T10:43:16.918Z,26.72
2023-04-09T10:44:12.969Z,27.19
2023-04-09T10:45:09.023Z,26.81
2023-04-09T10:46:05.141Z,27.39
2023-04-09T10:47:00.666Z,26.03
2023-04-09T10:47:56.211Z,26.03
2023-04-09T10:48:51.933Z,26.81
2023-04-09T10:49:47.335Z,26.62
2023-04-09T10:50:42.916Z,26.03
2023-04-09T10:51:38.502Z,26.24
2023-04-09T10:52:34.526Z,27.20
2023-04-09T10:53:30.582Z,25.03
2023-04-09T10:54:26.619Z,26.01
2023-04-09T10:55:22.208Z,26.31
2023-04-09T10:56:17.758Z,26.41
2023-04-09T10:57:13.311Z,24.85
2023-04-09T10:58:11.964Z,26.24
2023-04-09T10:59:04.912Z,26.23
2023-04-09T11:00:00.982Z,26.90
2023-04-09T11:00:57.014Z,26.31
2023-04-09T11:01:52.653Z,25.72
2023-04-09T11:02:48.822Z,25.43
2023-04-09T11:03:44.654Z,26.40
2023-04-09T11:04:40.250Z,24.92
2023-04-09T11:05:35.825Z,23.95
2023-04-09T11:06:31.869Z,25.23
2023-04-09T11:07:27.408Z,24.84
2023-04-09T11:08:23.456Z,25.52
2023-04-09T11:09:19.476Z,25.43
2023-04-09T11:10:15.030Z,25.90
2023-04-09T11:11:11.078Z,25.12
2023-04-09T11:12:07.101Z,25.21
2023-04-09T11:13:03.217Z,25.11
2023-04-09T11:13:58.728Z,24.32
2023-04-09T11:14:54.291Z,24.03
2023-04-09T11:15:49.900Z,24.81
2023-04-09T11:16:45.515Z,25.51
2023-04-09T11:17:41.491Z,24.43
2023-04-09T11:18:38.535Z,25.01
2023-04-09T11:19:34.574Z,24.22
2023-04-09T11:20:30.136Z,24.42
2023-04-09T11:21:25.704Z,24.82
2023-04-09T11:22:21.254Z,23.28
2023-04-09T11:23:16.903Z,25.04
2023-04-09T11:24:12.947Z,24.64
2023-04-09T11:25:08.984Z,24.24
2023-04-09T11:26:05.580Z,25.01
2023-04-09T11:27:01.182Z,24.32
2023-04-09T11:27:56.714Z,23.74
2023-04-09T11:28:54.011Z,22.77
2023-04-09T11:29:49.784Z,23.61
2023-04-09T11:30:45.835Z,25.50
2023-04-09T11:31:41.437Z,25.17
2023-04-09T11:32:37.447Z,23.96
2023-04-09T11:33:33.476Z,23.95
2023-04-09T11:34:29.038Z,23.16
2023-04-09T11:35:25.087Z,24.63
2023-04-09T11:36:21.138Z,23.44
2023-04-09T11:37:17.712Z,24.42
2023-04-09T11:38:13.763Z,23.72
2023-04-09T11:39:09.811Z,24.21
2023-04-09T11:40:05.373Z,22.35
2023-04-09T11:41:01.413Z,23.16
2023-04-09T11:41:56.976Z,23.27
2023-04-09T11:42:52.554Z,24.15
2023-04-09T11:43:48.134Z,24.33
2023-04-09T11:44:44.156Z,23.94
2023-04-09T11:45:39.754Z,23.55
2023-04-09T11:46:35.828Z,24.15
2023-04-09T11:47:31.864Z,23.25
2023-04-09T11:48:27.883Z,23.55
2023-04-09T11:49:23.442Z,23.24
2023-04-09T11:50:20.492Z,23.24
2023-04-09T11:51:16.511Z,22.84
2023-04-09T11:52:12.559Z,23.55
2023-04-09T11:53:09.368Z,23.74
2023-04-09T11:54:04.642Z,23.75
2023-04-09T11:55:00.705Z,24.64
2023-04-09T11:55:56.316Z,24.65
2023-04-09T11:56:51.886Z,23.95
2023-04-09T11:57:47.931Z,24.53
2023-04-09T11:58:43.512Z,24.44
2023-04-09T11:59:39.545Z,23.75